sensor_id;sensor_type;location;lat;lon;timestamp;pressure;altitude;pressure_sealevel;temperature;humidity
21100;BME280;10708;50.824;4.408;2023-04-01T00:04:39;98483.88;;;9.49;100.00
21100;BME280;10708;50.824;4.408;2023-04-01T00:09:42;98480.97;;;9.53;100.00
21100;BME280;10708;50.824;4.408;2023-04-01T00:14:45;98488.84;;;9.53;100.00
21100;BME280;10708;50.824;4.408;2023-04-01T00:19:47;98488.00;;;9.53;100.00
21100;BME280;10708;50.824;4.408;2023-04-01T00:24:51;98488.00;;;9.53;100.00
21100;BME280;10708;50.824;4.408;2023-04-01T00:29:54;98498.50;;;9.53;100.00
21100;BME280;10708;50.824;4.408;2023-04-01T00:34:56;98496.56;;;9.42;100.00
21100;BME280;10708;50.824;4.408;2023-04-01T00:40:01;98492.47;;;9.38;100.00
21100;BME280;10708;50.824;4.408;2023-04-01T00:45:25;98493.09;;;9.42;100.00
21100;BME280;10708;50.824;4.408;2023-04-01T00:50:29;98510.63;;;9.41;100.00
21100;BME280;10708;50.824;4.408;2023-04-01T00:55:35;98516.63;;;9.43;100.00
21100;BME280;10708;50.824;4.408;2023-04-01T01:00:39;98516.91;;;9.39;100.00
21100;BME280;10708;50.824;4.408;2023-04-01T01:06:10;98515.34;;;9.36;100.00
21100;BME280;10708;50.824;4.408;2023-04-01T01:11:15;98519.94;;;9.47;100.00
21100;BME280;10708;50.824;4.408;2023-04-01T01:16:26;98526.03;;;9.47;100.00
21100;BME280;10708;50.824;4.408;2023-04-01T01:21:46;98525.38;;;9.44;100.00
21100;BME280;10708;50.824;4.408;2023-04-01T01:26:59;98531.91;;;9.51;100.00
21100;BME280;10708;50.824;4.408;2023-04-01T01:32:11;98531.72;;;9.54;100.00
21100;BME280;10708;50.824;4.408;2023-04-01T01:37:23;98528.34;;;9.52;100.00
21100;BME280;10708;50.824;4.408;2023-04-01T01:42:29;98531.38;;;9.46;100.00
21100;BME280;10708;50.824;4.408;2023-04-01T01:47:34;98546.19;;;9.47;100.00
21100;BME280;10708;50.824;4.408;2023-04-01T01:52:39;98540.09;;;9.46;100.00
21100;BME280;10708;50.824;4.408;2023-04-01T01:57:42;98541.97;;;9.44;100.00
21100;BME280;10708;50.824;4.408;2023-04-01T02:02:47;98561.56;;;9.39;100.00
21100;BME280;10708;50.824;4.408;2023-04-01T02:07:58;98562.34;;;9.27;100.00
21100;BME280;10708;50.824;4.408;2023-04-01T02:13:07;98568.41;;;9.41;100.00
21100;BME280;10708;50.824;4.408;2023-04-01T02:18:12;98586.00;;;9.27;100.00
21100;BME280;10708;50.824;4.408;2023-04-01T02:23:16;98593.47;;;9.18;100.00
21100;BME280;10708;50.824;4.408;2023-04-01T02:28:20;98592.28;;;9.24;100.00
21100;BME280;10708;50.824;4.408;2023-04-01T02:33:24;98601.09;;;9.23;100.00
21100;BME280;10708;50.824;4.408;2023-04-01T02:38:28;98607.94;;;9.11;100.00
21100;BME280;10708;50.824;4.408;2023-04-01T02:43:30;98609.34;;;9.17;100.00
21100;BME280;10708;50.824;4.408;2023-04-01T02:48:33;98609.78;;;9.09;100.00
21100;BME280;10708;50.824;4.408;2023-04-01T02:53:37;98617.13;;;9.04;100.00
21100;BME280;10708;50.824;4.408;2023-04-01T02:58:39;98620.75;;;9.02;100.00
21100;BME280;10708;50.824;4.408;2023-04-01T03:03:41;98620.75;;;9.02;100.00
21100;BME280;10708;50.824;4.408;2023-04-01T03:08:45;98625.63;;;8.94;100.00
21100;BME280;10708;50.824;4.408;2023-04-01T03:13:48;98632.41;;;9.12;100.00
21100;BME280;10708;50.824;4.408;2023-04-01T03:18:50;98644.41;;;9.02;100.00
21100;BME280;10708;50.824;4.408;2023-04-01T03:23:54;98653.41;;;8.98;100.00
21100;BME280;10708;50.824;4.408;2023-04-01T03:28:57;98658.38;;;9.02;100.00
21100;BME280;10708;50.824;4.408;2023-04-01T03:33:59;98665.47;;;9.00;100.00
21100;BME280;10708;50.824;4.408;2023-04-01T03:39:03;98663.91;;;8.98;100.00
21100;BME280;10708;50.824;4.408;2023-04-01T03:44:06;98672.72;;;8.97;100.00
21100;BME280;10708;50.824;4.408;2023-04-01T03:49:09;98675.41;;;8.95;100.00
21100;BME280;10708;50.824;4.408;2023-04-01T03:54:13;98679.16;;;8.91;100.00
21100;BME280;10708;50.824;4.408;2023-04-01T03:59:16;98675.50;;;8.94;100.00
21100;BME280;10708;50.824;4.408;2023-04-01T04:04:18;98682.16;;;8.99;100.00
21100;BME280;10708;50.824;4.408;2023-04-01T04:09:22;98683.94;;;8.99;100.00
21100;BME280;10708;50.824;4.408;2023-04-01T04:14:24;98702.06;;;9.03;100.00
21100;BME280;10708;50.824;4.408;2023-04-01T04:19:31;98701.13;;;9.04;100.00
21100;BME280;10708;50.824;4.408;2023-04-01T04:24:36;98713.09;;;8.94;100.00
21100;BME280;10708;50.824;4.408;2023-04-01T04:29:38;98707.25;;;8.89;100.00
21100;BME280;10708;50.824;4.408;2023-04-01T04:34:41;98710.66;;;8.91;100.00
21100;BME280;10708;50.824;4.408;2023-04-01T04:39:44;98724.16;;;8.99;100.00
21100;BME280;10708;50.824;4.408;2023-04-01T04:44:47;98721.84;;;8.95;100.00
21100;BME280;10708;50.824;4.408;2023-04-01T04:49:49;98726.25;;;8.94;100.00
21100;BME280;10708;50.824;4.408;2023-04-01T04:54:53;98734.56;;;8.86;100.00
21100;BME280;10708;50.824;4.408;2023-04-01T04:59:55;98753.16;;;8.98;100.00
21100;BME280;10708;50.824;4.408;2023-04-01T05:04:57;98750.63;;;8.96;100.00
21100;BME280;10708;50.824;4.408;2023-04-01T05:10:01;98761.03;;;8.98;100.00
21100;BME280;10708;50.824;4.408;2023-04-01T05:15:04;98771.63;;;8.96;100.00
21100;BME280;10708;50.824;4.408;2023-04-01T05:20:07;98765.78;;;8.91;100.00
21100;BME280;10708;50.824;4.408;2023-04-01T05:25:12;98786.97;;;8.88;100.00
21100;BME280;10708;50.824;4.408;2023-04-01T05:30:14;98790.09;;;8.95;100.00
21100;BME280;10708;50.824;4.408;2023-04-01T05:35:16;98797.63;;;8.85;100.00
21100;BME280;10708;50.824;4.408;2023-04-01T05:40:20;98803.22;;;8.95;100.00
21100;BME280;10708;50.824;4.408;2023-04-01T05:45:22;98820.41;;;8.84;100.00
21100;BME280;10708;50.824;4.408;2023-04-01T05:50:25;98814.31;;;8.84;100.00
21100;BME280;10708;50.824;4.408;2023-04-01T05:55:29;98826.44;;;8.86;100.00
21100;BME280;10708;50.824;4.408;2023-04-01T06:00:31;98825.91;;;8.80;100.00
21100;BME280;10708;50.824;4.408;2023-04-01T06:05:39;98840.56;;;8.84;100.00
21100;BME280;10708;50.824;4.408;2023-04-01T06:10:52;98842.50;;;8.80;100.00
21100;BME280;10708;50.824;4.408;2023-04-01T06:16:04;98846.91;;;8.80;100.00
21100;BME280;10708;50.824;4.408;2023-04-01T06:21:43;98856.66;;;8.78;100.00
21100;BME280;10708;50.824;4.408;2023-04-01T06:26:57;98870.03;;;8.73;100.00
21100;BME280;10708;50.824;4.408;2023-04-01T06:32:21;98877.66;;;8.78;100.00
21100;BME280;10708;50.824;4.408;2023-04-01T06:37:41;98875.47;;;8.86;100.00
21100;BME280;10708;50.824;4.408;2023-04-01T06:43:00;98866.22;;;8.79;100.00
21100;BME280;10708;50.824;4.408;2023-04-01T06:48:21;98879.59;;;8.90;100.00
21100;BME280;10708;50.824;4.408;2023-04-01T06:53:35;98876.66;;;8.96;100.00
21100;BME280;10708;50.824;4.408;2023-04-01T06:58:46;98888.06;;;8.95;100.00
21100;BME280;10708;50.824;4.408;2023-04-01T07:03:55;98893.75;;;8.87;100.00
21100;BME280;10708;50.824;4.408;2023-04-01T07:09:02;98896.38;;;8.87;100.00
21100;BME280;10708;50.824;4.408;2023-04-01T07:14:15;98910.44;;;8.86;100.00
21100;BME280;10708;50.824;4.408;2023-04-01T07:19:21;98922.28;;;8.78;100.00
21100;BME280;10708;50.824;4.408;2023-04-01T07:24:31;98918.72;;;8.95;100.00
21100;BME280;10708;50.824;4.408;2023-04-01T07:29:36;98934.78;;;8.88;100.00
21100;BME280;10708;50.824;4.408;2023-04-01T07:34:45;98937.25;;;8.92;100.00
21100;BME280;10708;50.824;4.408;2023-04-01T07:39:55;98949.81;;;8.86;100.00
21100;BME280;10708;50.824;4.408;2023-04-01T07:45:09;98951.84;;;8.97;100.00
21100;BME280;10708;50.824;4.408;2023-04-01T07:50:22;98957.84;;;8.99;100.00
21100;BME280;10708;50.824;4.408;2023-04-01T07:55:32;98961.16;;;8.87;100.00
21100;BME280;10708;50.824;4.408;2023-04-01T08:00:45;98967.06;;;8.91;100.00
21100;BME280;10708;50.824;4.408;2023-04-01T08:05:55;98977.41;;;8.94;100.00
21100;BME280;10708;50.824;4.408;2023-04-01T08:11:06;98980.97;;;8.93;100.00
21100;BME280;10708;50.824;4.408;2023-04-01T08:16:17;98980.03;;;8.94;100.00
21100;BME280;10708;50.824;4.408;2023-04-01T08:21:24;98994.09;;;8.93;100.00
21100;BME280;10708;50.824;4.408;2023-04-01T08:26:34;98995.72;;;8.95;100.00
21100;BME280;10708;50.824;4.408;2023-04-01T08:31:43;99001.59;;;9.16;100.00
21100;BME280;10708;50.824;4.408;2023-04-01T08:36:51;99007.06;;;8.96;100.00
21100;BME280;10708;50.824;4.408;2023-04-01T08:42:23;99019.00;;;9.01;100.00
21100;BME280;10708;50.824;4.408;2023-04-01T08:47:57;99023.00;;;9.08;100.00
21100;BME280;10708;50.824;4.408;2023-04-01T08:53:15;99026.03;;;9.01;100.00
21100;BME280;10708;50.824;4.408;2023-04-01T09:04:17;99038.94;;;9.05;100.00
21100;BME280;10708;50.824;4.408;2023-04-01T09:09:43;99051.22;;;9.05;100.00
21100;BME280;10708;50.824;4.408;2023-04-01T09:15:16;99048.66;;;9.03;100.00
21100;BME280;10708;50.824;4.408;2023-04-01T09:26:23;99058.09;;;9.23;100.00
21100;BME280;10708;50.824;4.408;2023-04-01T09:31:46;99061.22;;;9.30;100.00
21100;BME280;10708;50.824;4.408;2023-04-01T09:37:17;99064.19;;;9.39;100.00
21100;BME280;10708;50.824;4.408;2023-04-01T09:42:41;99080.41;;;9.47;100.00
21100;BME280;10708;50.824;4.408;2023-04-01T09:47:53;99085.25;;;9.55;100.00
21100;BME280;10708;50.824;4.408;2023-04-01T09:53:11;99083.91;;;9.48;100.00
21100;BME280;10708;50.824;4.408;2023-04-01T10:09:53;99100.09;;;9.72;100.00
21100;BME280;10708;50.824;4.408;2023-04-01T10:21:37;99113.66;;;9.64;100.00
21100;BME280;10708;50.824;4.408;2023-04-01T10:27:04;99116.72;;;9.56;100.00
21100;BME280;10708;50.824;4.408;2023-04-01T10:32:35;99112.09;;;9.60;100.00
21100;BME280;10708;50.824;4.408;2023-04-01T10:38:08;99121.19;;;9.54;100.00
21100;BME280;10708;50.824;4.408;2023-04-01T10:54:45;99137.31;;;9.95;100.00
21100;BME280;10708;50.824;4.408;2023-04-01T11:06:11;99144.53;;;9.76;100.00
21100;BME280;10708;50.824;4.408;2023-04-01T11:17:18;99146.16;;;9.94;100.00
21100;BME280;10708;50.824;4.408;2023-04-01T11:22:33;99145.97;;;9.97;100.00
21100;BME280;10708;50.824;4.408;2023-04-01T11:27:53;99151.34;;;10.27;100.00
21100;BME280;10708;50.824;4.408;2023-04-01T11:33:07;99155.47;;;10.16;100.00
21100;BME280;10708;50.824;4.408;2023-04-01T11:38:29;99174.97;;;10.12;100.00
21100;BME280;10708;50.824;4.408;2023-04-01T11:43:39;99171.25;;;10.00;100.00
21100;BME280;10708;50.824;4.408;2023-04-01T11:48:53;99177.59;;;9.80;100.00
21100;BME280;10708;50.824;4.408;2023-04-01T11:54:05;99183.13;;;9.91;100.00
21100;BME280;10708;50.824;4.408;2023-04-01T11:59:39;99190.59;;;9.83;100.00
21100;BME280;10708;50.824;4.408;2023-04-01T12:05:11;99195.41;;;9.91;100.00
21100;BME280;10708;50.824;4.408;2023-04-01T12:10:18;99204.56;;;9.68;100.00
21100;BME280;10708;50.824;4.408;2023-04-01T12:15:29;99209.34;;;9.77;100.00
21100;BME280;10708;50.824;4.408;2023-04-01T12:20:44;99210.94;;;10.11;100.00
21100;BME280;10708;50.824;4.408;2023-04-01T12:26:06;99205.13;;;10.06;100.00
21100;BME280;10708;50.824;4.408;2023-04-01T12:31:22;99218.28;;;10.06;100.00
21100;BME280;10708;50.824;4.408;2023-04-01T12:36:44;99240.91;;;9.93;100.00
21100;BME280;10708;50.824;4.408;2023-04-01T12:41:53;99240.75;;;9.63;100.00
21100;BME280;10708;50.824;4.408;2023-04-01T12:47:23;99231.47;;;9.89;100.00
21100;BME280;10708;50.824;4.408;2023-04-01T12:52:41;99262.69;;;9.62;100.00
21100;BME280;10708;50.824;4.408;2023-04-01T13:03:31;99264.91;;;9.37;100.00
21100;BME280;10708;50.824;4.408;2023-04-01T13:08:43;99261.03;;;9.44;100.00
21100;BME280;10708;50.824;4.408;2023-04-01T13:14:05;99271.63;;;9.42;100.00
21100;BME280;10708;50.824;4.408;2023-04-01T13:19:21;99282.44;;;9.53;100.00
21100;BME280;10708;50.824;4.408;2023-04-01T13:24:40;99277.03;;;9.39;100.00
21100;BME280;10708;50.824;4.408;2023-04-01T13:29:50;99284.84;;;9.23;100.00
21100;BME280;10708;50.824;4.408;2023-04-01T13:35:05;99291.41;;;9.32;100.00
21100;BME280;10708;50.824;4.408;2023-04-01T13:40:26;99295.19;;;9.44;100.00
21100;BME280;10708;50.824;4.408;2023-04-01T13:45:38;99295.03;;;9.30;100.00
21100;BME280;10708;50.824;4.408;2023-04-01T13:51:10;99311.56;;;9.32;100.00
21100;BME280;10708;50.824;4.408;2023-04-01T13:56:23;99310.09;;;9.43;100.00
21100;BME280;10708;50.824;4.408;2023-04-01T14:01:39;99324.47;;;9.53;100.00
21100;BME280;10708;50.824;4.408;2023-04-01T14:06:51;99328.19;;;9.67;100.00
21100;BME280;10708;50.824;4.408;2023-04-01T14:12:04;99330.19;;;9.61;100.00
21100;BME280;10708;50.824;4.408;2023-04-01T14:22:28;99330.72;;;9.85;100.00
21100;BME280;10708;50.824;4.408;2023-04-01T14:27:38;99344.03;;;9.65;100.00
21100;BME280;10708;50.824;4.408;2023-04-01T14:32:51;99339.69;;;9.81;100.00
21100;BME280;10708;50.824;4.408;2023-04-01T14:38:04;99340.31;;;9.69;100.00
21100;BME280;10708;50.824;4.408;2023-04-01T14:43:22;99351.94;;;9.48;100.00
21100;BME280;10708;50.824;4.408;2023-04-01T14:48:32;99352.63;;;9.51;100.00
21100;BME280;10708;50.824;4.408;2023-04-01T14:53:38;99355.94;;;9.55;100.00
21100;BME280;10708;50.824;4.408;2023-04-01T14:58:46;99360.97;;;9.77;100.00
21100;BME280;10708;50.824;4.408;2023-04-01T15:03:53;99374.09;;;9.42;100.00
21100;BME280;10708;50.824;4.408;2023-04-01T15:09:04;99374.16;;;9.41;100.00
21100;BME280;10708;50.824;4.408;2023-04-01T15:14:31;99382.81;;;9.25;100.00
21100;BME280;10708;50.824;4.408;2023-04-01T15:20:02;99388.41;;;9.37;100.00
21100;BME280;10708;50.824;4.408;2023-04-01T15:25:34;99391.34;;;9.48;100.00
21100;BME280;10708;50.824;4.408;2023-04-01T15:30:51;99395.44;;;9.53;100.00
21100;BME280;10708;50.824;4.408;2023-04-01T15:36:02;99400.50;;;9.39;100.00
21100;BME280;10708;50.824;4.408;2023-04-01T15:41:13;99396.63;;;9.48;100.00
21100;BME280;10708;50.824;4.408;2023-04-01T15:46:36;99404.72;;;9.43;100.00
21100;BME280;10708;50.824;4.408;2023-04-01T15:52:06;99404.97;;;9.20;100.00
21100;BME280;10708;50.824;4.408;2023-04-01T15:57:28;99417.66;;;9.29;100.00
21100;BME280;10708;50.824;4.408;2023-04-01T16:02:36;99429.63;;;9.17;100.00
21100;BME280;10708;50.824;4.408;2023-04-01T16:07:52;99438.34;;;8.99;100.00
21100;BME280;10708;50.824;4.408;2023-04-01T16:13:12;99437.38;;;9.02;100.00
21100;BME280;10708;50.824;4.408;2023-04-01T16:18:35;99447.38;;;8.94;100.00
21100;BME280;10708;50.824;4.408;2023-04-01T16:23:48;99449.47;;;8.87;100.00
21100;BME280;10708;50.824;4.408;2023-04-01T16:28:54;99456.25;;;8.91;100.00
21100;BME280;10708;50.824;4.408;2023-04-01T16:34:04;99466.97;;;8.86;100.00
21100;BME280;10708;50.824;4.408;2023-04-01T16:39:21;99467.31;;;8.79;100.00
21100;BME280;10708;50.824;4.408;2023-04-01T16:44:26;99468.88;;;8.83;100.00
21100;BME280;10708;50.824;4.408;2023-04-01T16:49:33;99479.81;;;8.93;100.00
21100;BME280;10708;50.824;4.408;2023-04-01T16:54:43;99481.38;;;8.78;100.00
21100;BME280;10708;50.824;4.408;2023-04-01T16:59:54;99484.34;;;8.89;100.00
21100;BME280;10708;50.824;4.408;2023-04-01T17:05:04;99500.19;;;8.87;100.00
21100;BME280;10708;50.824;4.408;2023-04-01T17:10:25;99510.44;;;8.73;100.00
21100;BME280;10708;50.824;4.408;2023-04-01T17:15:33;99507.69;;;8.76;100.00
21100;BME280;10708;50.824;4.408;2023-04-01T17:20:48;99506.19;;;8.71;100.00
21100;BME280;10708;50.824;4.408;2023-04-01T17:26:27;99515.41;;;8.79;100.00
21100;BME280;10708;50.824;4.408;2023-04-01T17:31:45;99522.25;;;8.83;100.00
21100;BME280;10708;50.824;4.408;2023-04-01T17:37:11;99534.19;;;8.70;100.00
21100;BME280;10708;50.824;4.408;2023-04-01T17:42:21;99541.88;;;8.75;100.00
21100;BME280;10708;50.824;4.408;2023-04-01T17:47:43;99548.97;;;8.73;100.00
21100;BME280;10708;50.824;4.408;2023-04-01T17:53:02;99553.44;;;8.71;100.00
21100;BME280;10708;50.824;4.408;2023-04-01T17:58:13;99565.69;;;8.70;100.00
21100;BME280;10708;50.824;4.408;2023-04-01T18:03:28;99569.19;;;8.71;100.00
21100;BME280;10708;50.824;4.408;2023-04-01T18:08:49;99580.75;;;8.67;100.00
21100;BME280;10708;50.824;4.408;2023-04-01T18:14:09;99583.88;;;8.75;100.00
21100;BME280;10708;50.824;4.408;2023-04-01T18:19:26;99596.56;;;8.65;100.00
21100;BME280;10708;50.824;4.408;2023-04-01T18:24:36;99600.88;;;8.66;100.00
21100;BME280;10708;50.824;4.408;2023-04-01T18:29:49;99616.63;;;8.66;100.00
21100;BME280;10708;50.824;4.408;2023-04-01T18:34:59;99613.41;;;8.60;100.00
21100;BME280;10708;50.824;4.408;2023-04-01T18:40:15;99621.50;;;8.55;100.00
21100;BME280;10708;50.824;4.408;2023-04-01T18:45:23;99628.50;;;8.55;100.00
21100;BME280;10708;50.824;4.408;2023-04-01T18:50:33;99634.84;;;8.49;100.00
21100;BME280;10708;50.824;4.408;2023-04-01T18:55:42;99643.50;;;8.51;100.00
21100;BME280;10708;50.824;4.408;2023-04-01T19:00:54;99658.41;;;8.50;100.00
21100;BME280;10708;50.824;4.408;2023-04-01T19:06:01;99666.59;;;8.43;100.00
21100;BME280;10708;50.824;4.408;2023-04-01T19:11:18;99668.25;;;8.45;100.00
21100;BME280;10708;50.824;4.408;2023-04-01T19:16:32;99676.25;;;8.42;100.00
21100;BME280;10708;50.824;4.408;2023-04-01T19:21:42;99688.50;;;8.42;100.00
21100;BME280;10708;50.824;4.408;2023-04-01T19:26:56;99692.31;;;8.35;100.00
21100;BME280;10708;50.824;4.408;2023-04-01T19:32:08;99703.38;;;8.41;100.00
21100;BME280;10708;50.824;4.408;2023-04-01T19:37:25;99702.47;;;8.42;100.00
21100;BME280;10708;50.824;4.408;2023-04-01T19:42:39;99715.06;;;8.34;100.00
21100;BME280;10708;50.824;4.408;2023-04-01T19:47:57;99727.16;;;8.38;100.00
21100;BME280;10708;50.824;4.408;2023-04-01T19:53:11;99736.84;;;8.36;100.00
21100;BME280;10708;50.824;4.408;2023-04-01T19:58:21;99741.44;;;8.30;100.00
21100;BME280;10708;50.824;4.408;2023-04-01T20:03:37;99747.13;;;8.41;100.00
21100;BME280;10708;50.824;4.408;2023-04-01T20:08:45;99756.91;;;8.37;100.00
21100;BME280;10708;50.824;4.408;2023-04-01T20:14:01;99759.88;;;8.28;100.00
21100;BME280;10708;50.824;4.408;2023-04-01T20:19:08;99762.34;;;8.33;100.00
21100;BME280;10708;50.824;4.408;2023-04-01T20:24:17;99774.44;;;8.37;100.00
21100;BME280;10708;50.824;4.408;2023-04-01T20:29:50;99785.03;;;8.34;100.00
21100;BME280;10708;50.824;4.408;2023-04-01T20:35:19;99785.09;;;8.31;100.00
21100;BME280;10708;50.824;4.408;2023-04-01T20:40:33;99801.53;;;8.37;100.00
21100;BME280;10708;50.824;4.408;2023-04-01T20:45:44;99806.81;;;8.36;100.00
21100;BME280;10708;50.824;4.408;2023-04-01T20:50:51;99817.00;;;8.43;100.00
21100;BME280;10708;50.824;4.408;2023-04-01T20:56:13;99824.38;;;8.34;100.00
21100;BME280;10708;50.824;4.408;2023-04-01T21:01:29;99823.53;;;8.33;100.00
21100;BME280;10708;50.824;4.408;2023-04-01T21:12:13;99845.88;;;8.43;100.00
21100;BME280;10708;50.824;4.408;2023-04-01T21:17:33;99843.09;;;8.48;100.00
21100;BME280;10708;50.824;4.408;2023-04-01T21:28:34;99864.63;;;8.56;100.00
21100;BME280;10708;50.824;4.408;2023-04-01T21:33:59;99870.59;;;8.60;100.00
21100;BME280;10708;50.824;4.408;2023-04-01T21:39:25;99880.88;;;8.66;100.00
21100;BME280;10708;50.824;4.408;2023-04-01T21:44:52;99884.19;;;8.71;100.00
21100;BME280;10708;50.824;4.408;2023-04-01T21:56:02;99897.13;;;8.75;100.00
21100;BME280;10708;50.824;4.408;2023-04-01T22:01:26;99904.06;;;8.78;100.00
21100;BME280;10708;50.824;4.408;2023-04-01T22:06:38;99919.91;;;8.75;100.00
21100;BME280;10708;50.824;4.408;2023-04-01T22:11:51;99919.59;;;8.82;100.00
21100;BME280;10708;50.824;4.408;2023-04-01T22:16:57;99928.28;;;8.84;100.00
21100;BME280;10708;50.824;4.408;2023-04-01T22:22:11;99936.81;;;8.89;100.00
21100;BME280;10708;50.824;4.408;2023-04-01T22:27:21;99939.41;;;8.91;100.00
21100;BME280;10708;50.824;4.408;2023-04-01T22:32:30;99948.06;;;8.93;100.00
21100;BME280;10708;50.824;4.408;2023-04-01T22:37:42;99959.53;;;8.91;100.00
21100;BME280;10708;50.824;4.408;2023-04-01T22:42:53;99965.66;;;8.91;100.00
21100;BME280;10708;50.824;4.408;2023-04-01T22:48:06;99980.81;;;8.84;100.00
21100;BME280;10708;50.824;4.408;2023-04-01T22:53:19;99986.16;;;8.81;100.00
21100;BME280;10708;50.824;4.408;2023-04-01T22:58:31;99985.34;;;8.79;100.00
21100;BME280;10708;50.824;4.408;2023-04-01T23:03:37;99995.66;;;8.85;100.00
21100;BME280;10708;50.824;4.408;2023-04-01T23:08:54;100000.19;;;8.80;100.00
21100;BME280;10708;50.824;4.408;2023-04-01T23:14:15;100009.84;;;8.80;100.00
21100;BME280;10708;50.824;4.408;2023-04-01T23:19:30;100023.16;;;8.75;100.00
21100;BME280;10708;50.824;4.408;2023-04-01T23:24:43;100018.72;;;8.77;100.00
21100;BME280;10708;50.824;4.408;2023-04-01T23:29:48;100025.22;;;8.67;100.00
21100;BME280;10708;50.824;4.408;2023-04-01T23:34:53;100040.88;;;8.69;100.00
21100;BME280;10708;50.824;4.408;2023-04-01T23:39:58;100049.16;;;8.58;100.00
21100;BME280;10708;50.824;4.408;2023-04-01T23:45:03;100054.41;;;8.58;100.00
21100;BME280;10708;50.824;4.408;2023-04-01T23:50:10;100066.72;;;8.56;100.00
21100;BME280;10708;50.824;4.408;2023-04-01T23:55:18;100071.97;;;8.56;100.00
